This is the latest recevied weather packets stored in our database for station/object KI6AOK. If no packets are shown the sender has not sent any weather packets the latest 10 day(s).
| Time | Temp. | Humidity | Pressure | Rain* | Wind** | Luminosity | Snow |
|---|---|---|---|---|---|---|---|
| 1777918017 | 18.89° C | 57% | 1016.4 hPa | 0 mm | - | 410 W/m² | - |
| 1777917715 | 18.89° C | 58% | 1016.3 hPa | 0 mm | - | 350 W/m² | - |
| 1777917412 | 17.78° C | 61% | 1016.3 hPa | 0 mm | - | 798 W/m² | - |
| 1777917109 | 17.22° C | 64% | 1016.2 hPa | 0 mm | - | 373 W/m² | - |
| 1777916807 | 17.22° C | 64% | 1016.3 hPa | 0 mm | - | 254 W/m² | - |
| 1777916503 | 17.78° C | 61% | 1016.3 hPa | 0 mm | - | 264 W/m² | - |
| 1777916201 | 17.22° C | 61% | 1016.1 hPa | 0 mm | - | 316 W/m² | - |
| 1777915898 | 16.67° C | 61% | 1016.1 hPa | 0 mm | - | 322 W/m² | - |
| 1777915595 | 16.67° C | 62% | 1016 hPa | 0 mm | - | 243 W/m² | - |
| 1777915291 | 16.67° C | 62% | 1016.2 hPa | 0 mm | - | 182 W/m² | - |
| 1777914987 | 17.22° C | 64% | 1016 hPa | 0 mm | - | 143 W/m² | - |
| 1777914685 | 16.67° C | 63% | 1016.1 hPa | 0 mm | - | 177 W/m² | - |
| 1777914381 | 16.67° C | 64% | 1015.8 hPa | 0 mm | - | 228 W/m² | - |
| 1777914079 | 17.22° C | 63% | 1015.9 hPa | 0 mm | - | 228 W/m² | - |
| 1777913774 | 17.22° C | 63% | 1015.9 hPa | 0 mm | - | 184 W/m² | - |
| 1777913471 | 17.22° C | 64% | 1015.8 hPa | 0 mm | - | 194 W/m² | - |
| 1777913168 | 17.78° C | 61% | 1015.8 hPa | 0 mm | - | 212 W/m² | - |
| 1777912864 | 18.33° C | 59% | 1015.8 hPa | 0 mm | - | 226 W/m² | - |
| 1777912560 | 17.78° C | 62% | 1016 hPa | 0 mm | - | 551 W/m² | - |
| 1777912257 | 17.22° C | 63% | 1015.9 hPa | 0 mm | - | 574 W/m² | - |
| 1777911953 | 16.67° C | 65% | 1015.7 hPa | 0 mm | - | 287 W/m² | - |
| 1777911649 | 17.22° C | 65% | 1015.6 hPa | 0 mm | - | 222 W/m² | - |
| 1777911345 | 16.67° C | 66% | 1015.8 hPa | 0 mm | - | 240 W/m² | - |
| 1777911043 | 16.67° C | 67% | 1015.7 hPa | 0 mm | - | 253 W/m² | - |
| 1777910740 | 17.22° C | 65% | 1015.8 hPa | 0 mm | - | 176 W/m² | - |
* Rain latest hour (hover to see other rain measurements)
** Current wind speed in m/s (hover to see current wind gust speed)